Time;durP1;ratioP1;P1;durP2;ratioP2;P2;SDS_P1;SDS_P2;PMS_P1;PMS_P2;Temp;Humidity;BMP_temperature;BMP_pressure;BME280_temperature;BME280_humidity;BME280_pressure;Samples;Min_cycle;Max_cycle;Signal;HPM_P1;HPM_P2
2022/01/25 00:28:26;;;;;;;87.75;47.95;;;4.30;99.90;;;;;;4801814;29;20059;-84
2022/01/25 00:33:26;;;;;;;89.05;49.63;;;5.20;99.90;;;;;;4804080;29;20054;-83
2022/01/25 00:35:52;;;;;;;92.15;50.58;;;4.00;99.90;;;;;;4805686;29;20058;-86
2022/01/25 00:38:18;;;;;;;85.70;49.20;;;4.10;99.90;;;;;;4801714;29;20512;-84
2022/01/25 00:40:43;;;;;;;99.68;51.65;;;5.40;99.90;;;;;;4802722;29;20122;-84
2022/01/25 00:43:09;;;;;;;86.45;49.60;;;;;;;;;;4802677;29;20070;-83
2022/01/25 00:45:35;;;;;;;88.80;49.67;;;4.20;99.90;;;;;;4802951;29;20126;-84
2022/01/25 00:48:03;;;;;;;93.43;51.10;;;6.20;99.90;;;;;;4807609;29;20528;-82
2022/01/25 00:50:37;;;;;;;92.63;51.90;;;4.20;99.90;;;;;;4793280;29;20054;-84
2022/01/25 00:55:31;;;;;;;84.43;48.97;;;3.90;99.90;;;;;;4805655;29;20130;-84
2022/01/25 00:57:56;;;;;;;90.97;50.63;;;6.40;99.90;;;;;;4806798;29;20046;-84
2022/01/25 01:00:24;;;;;;;93.53;51.45;;;2.90;99.90;;;;;;4805374;29;20387;-84
2022/01/25 01:02:50;;;;;;;86.22;48.85;;;4.20;99.90;;;;;;4786757;29;20062;-84
2022/01/25 01:05:15;;;;;;;96.90;50.60;;;4.10;99.90;;;;;;4807929;29;20050;-83
2022/01/25 01:07:42;;;;;;;92.15;51.00;;;6.10;99.90;;;;;;4774504;29;20405;-84
2022/01/25 01:10:09;;;;;;;91.63;49.38;;;3.60;99.90;;;;;;4792333;29;22142;-87
2022/01/25 01:15:31;;;;;;;99.45;51.72;;;4.30;99.90;;;;;;4807027;29;20494;-84
2022/01/25 01:29:14;;;;;;;98.18;52.13;;;3.30;99.90;;;;;;4804089;29;20141;-85
2022/01/25 01:42:18;;;;;;;96.75;52.70;;;5.30;99.90;;;;;;4810400;29;20058;-84
2022/01/25 01:47:49;;;;;;;102.10;54.13;;;4.20;99.90;;;;;;4791091;29;20063;-84
2022/01/25 01:50:26;;;;;;;91.57;53.05;;;4.50;99.90;;;;;;4806945;29;20125;-84
2022/01/25 01:52:53;;;;;;;97.57;55.10;;;5.10;99.90;;;;;;4805991;29;20108;-85
2022/01/25 01:55:19;;;;;;;96.40;53.10;;;3.40;99.90;;;;;;4806106;29;20406;-84
2022/01/25 01:57:46;;;;;;;97.20;54.00;;;2.90;99.90;;;;;;4804537;29;20063;-84
2022/01/25 02:00:13;;;;;;;97.15;53.83;;;4.50;99.90;;;;;;4804444;29;20039;-84
2022/01/25 02:02:39;;;;;;;101.82;55.97;;;4.20;99.90;;;;;;4805387;29;20054;-84
2022/01/25 02:05:05;;;;;;;105.10;56.45;;;6.40;99.90;;;;;;4806366;29;20047;-84
2022/01/25 02:07:31;;;;;;;94.30;53.90;;;4.20;99.90;;;;;;4804462;29;20380;-85
2022/01/25 02:09:57;;;;;;;97.40;52.55;;;5.50;99.90;;;;;;4806212;29;20123;-85
2022/01/25 02:12:23;;;;;;;88.72;52.08;;;;;;;;;;4804749;29;20050;-83
2022/01/25 02:14:48;;;;;;;94.35;54.50;;;4.20;99.90;;;;;;4789465;29;20458;-84
2022/01/25 02:22:55;;;;;;;94.97;53.35;;;4.20;99.90;;;;;;4806372;29;20066;-84
2022/01/25 02:25:21;;;;;;;92.07;53.80;;;4.40;99.90;;;;;;4803659;29;20051;-85
2022/01/25 02:27:47;;;;;;;98.50;54.00;;;4.80;99.90;;;;;;4805426;29;20059;-84
2022/01/25 02:30:13;;;;;;;101.80;54.22;;;6.20;99.90;;;;;;4778446;29;20139;-84
2022/01/25 02:32:38;;;;;;;96.55;53.25;;;5.70;99.90;;;;;;4805308;29;20043;-84
2022/01/25 02:35:05;;;;;;;97.60;54.10;;;4.70;99.90;;;;;;4807621;29;20046;-84
2022/01/25 02:37:31;;;;;;;99.88;54.83;;;4.10;99.90;;;;;;4803962;29;20497;-85
2022/01/25 02:39:57;;;;;;;98.60;55.22;;;4.50;99.90;;;;;;4804672;29;20097;-84
2022/01/25 02:42:23;;;;;;;100.53;54.63;;;4.90;99.90;;;;;;4788958;29;20074;-84
2022/01/25 02:44:49;;;;;;;99.93;53.85;;;4.70;99.90;;;;;;4806660;29;20066;-84
2022/01/25 02:50:00;;;;;;;102.43;54.40;;;;;;;;;;4804788;29;20074;-83
2022/01/25 02:52:26;;;;;;;98.63;53.58;;;4.00;99.90;;;;;;4804470;29;20129;-83
2022/01/25 02:54:53;;;;;;;98.80;54.30;;;4.10;99.90;;;;;;4803479;29;20086;-84
2022/01/25 02:57:19;;;;;;;99.00;53.08;;;1.70;99.90;;;;;;4804648;29;20080;-83
2022/01/25 02:59:45;;;;;;;94.38;52.47;;;4.00;99.90;;;;;;4804453;29;20042;-84
2022/01/25 03:02:11;;;;;;;94.80;51.38;;;4.10;99.90;;;;;;4804195;29;20131;-84
2022/01/25 03:04:37;;;;;;;100.63;51.58;;;4.20;99.90;;;;;;4805050;29;20497;-83
2022/01/25 03:07:03;;;;;;;94.78;51.65;;;4.60;99.90;;;;;;4804306;29;20143;-83
2022/01/25 03:09:29;;;;;;;86.05;48.67;;;4.10;99.90;;;;;;4806156;29;20106;-83
2022/01/25 03:11:56;;;;;;;90.75;50.53;;;4.00;99.90;;;;;;4803956;29;20087;-83
2022/01/25 03:14:26;;;;;;;91.22;50.60;;;4.20;99.90;;;;;;4803321;29;20174;-87
2022/01/25 03:19:42;;;;;;;91.32;50.85;;;4.00;99.90;;;;;;4787595;29;20150;-83
2022/01/25 03:22:57;;;;;;;91.22;48.92;;;4.10;99.90;;;;;;4804056;29;20059;-82
2022/01/25 03:25:03;;;;;;;90.30;49.03;;;4.00;99.90;;;;;;4800310;29;20493;-81
2022/01/25 03:27:29;;;;;;;87.90;49.65;;;3.30;99.90;;;;;;4806517;29;20515;-81
2022/01/25 03:29:54;;;;;;;89.45;48.97;;;6.00;99.90;;;;;;4788077;29;20047;-81
2022/01/25 03:32:20;;;;;;;92.53;50.50;;;4.00;99.90;;;;;;4804356;29;20436;-81
2022/01/25 03:34:46;;;;;;;91.75;51.03;;;2.30;99.90;;;;;;4788237;29;20074;-82
2022/01/25 03:37:11;;;;;;;93.68;51.83;;;4.70;99.90;;;;;;4787460;29;20070;-83
2022/01/25 03:39:37;;;;;;;103.50;52.72;;;4.40;99.90;;;;;;4773566;29;20061;-83
2022/01/25 03:42:07;;;;;;;96.82;52.35;;;4.20;99.90;;;;;;4788601;29;20493;-83
2022/01/25 03:44:32;;;;;;;96.05;52.00;;;3.70;99.90;;;;;;4802290;29;20063;-83
2022/01/25 03:47:05;;;;;;;92.43;50.50;;;4.00;99.90;;;;;;4808197;29;20476;-83
2022/01/25 03:52:16;;;;;;;94.85;51.30;;;6.50;99.90;;;;;;4805664;29;20107;-82
2022/01/25 03:54:42;;;;;;;90.30;49.92;;;6.70;99.90;;;;;;4802528;29;20126;-83
2022/01/25 03:57:08;;;;;;;90.03;50.83;;;5.40;99.90;;;;;;4795038;29;20137;-84
2022/01/25 03:59:34;;;;;;;91.03;50.83;;;4.40;99.90;;;;;;4802849;29;20066;-81
2022/01/25 04:01:59;;;;;;;97.43;52.17;;;4.40;99.90;;;;;;4803559;29;20513;-82
2022/01/25 04:04:26;;;;;;;94.53;50.65;;;5.10;99.90;;;;;;4802438;29;20054;-85
2022/01/25 04:06:53;;;;;;;97.78;52.50;;;4.70;99.90;;;;;;4803031;29;20080;-83
2022/01/25 04:09:20;;;;;;;99.60;52.60;;;6.80;99.90;;;;;;4786638;29;20153;-83
2022/01/25 04:11:45;;;;;;;93.10;50.28;;;5.40;99.90;;;;;;4802476;29;20450;-83
2022/01/25 04:14:11;;;;;;;93.32;51.35;;;4.00;99.90;;;;;;4803842;29;20111;-85
2022/01/25 04:16:49;;;;;;;99.43;53.30;;;5.10;99.90;;;;;;4803277;29;20094;-83
2022/01/25 04:20:10;;;;;;;92.80;50.90;;;4.00;99.90;;;;;;4802528;29;20386;-83
2022/01/25 04:25:01;;;;;;;98.63;52.72;;;4.40;99.90;;;;;;4803387;29;20145;-83
2022/01/25 04:27:27;;;;;;;94.13;52.47;;;4.00;99.90;;;;;;4787492;29;20063;-82
2022/01/25 04:29:53;;;;;;;90.32;50.90;;;4.20;99.90;;;;;;4801904;29;20067;-83
2022/01/25 04:32:45;;;;;;;102.80;53.88;;;6.50;99.90;;;;;;4786566;29;20039;-82
2022/01/25 04:36:22;;;;;;;95.80;51.80;;;6.10;99.90;;;;;;4788434;29;20421;-83
2022/01/25 04:49:13;;;;;;;103.10;53.25;;;6.50;99.90;;;;;;4793969;29;20059;-82
2022/01/25 04:59:40;;;;;;;104.30;53.22;;;3.30;99.90;;;;;;4804068;29;20135;-82
2022/01/25 05:02:25;;;;;;;102.50;54.05;;;4.30;99.90;;;;;;4803005;29;20050;-83
2022/01/25 05:04:58;;;;;;;100.75;54.40;;;5.50;99.90;;;;;;4801750;29;20050;-83
2022/01/25 05:10:08;;;;;;;97.50;52.92;;;3.90;99.90;;;;;;4800578;29;20050;-83
2022/01/25 05:12:41;;;;;;;102.22;53.40;;;3.60;99.90;;;;;;4788869;29;20070;-85
2022/01/25 05:15:24;;;;;;;99.72;54.38;;;4.30;99.90;;;;;;4802430;29;20051;-83
2022/01/25 05:23:30;;;;;;;94.28;53.08;;;;;;;;;;4803716;29;20054;-82
2022/01/25 05:25:55;;;;;;;95.20;51.75;;;4.00;99.90;;;;;;4802674;29;20054;-82
2022/01/25 05:28:21;;;;;;;100.10;53.22;;;3.70;99.90;;;;;;4786254;29;20059;-83
2022/01/25 05:30:47;;;;;;;106.10;53.20;;;3.70;99.90;;;;;;4804142;29;20485;-82
2022/01/25 05:33:13;;;;;;;98.70;51.45;;;;;;;;;;4803886;29;20111;-84
2022/01/25 05:35:39;;;;;;;101.22;52.60;;;4.00;99.90;;;;;;4802404;29;20519;-87
2022/01/25 05:38:05;;;;;;;103.78;52.95;;;3.90;99.90;;;;;;4805260;29;20054;-82
2022/01/25 05:40:46;;;;;;;103.47;52.75;;;5.70;99.90;;;;;;4790524;29;20126;-83
2022/01/25 05:48:11;;;;;;;97.30;51.97;;;5.60;99.90;;;;;;4805906;29;20337;-82
2022/01/25 05:50:37;;;;;;;94.78;49.90;;;4.30;99.90;;;;;;4804327;29;20046;-82
2022/01/25 05:53:03;;;;;;;97.03;49.17;;;;;;;;;;4788990;29;20077;-81
2022/01/25 05:55:29;;;;;;;94.50;49.78;;;4.00;99.90;;;;;;4788194;29;20493;-84
2022/01/25 05:57:55;;;;;;;86.22;47.00;;;3.40;99.90;;;;;;4803034;29;20081;-82
2022/01/25 06:00:21;;;;;;;88.78;48.22;;;3.80;99.90;;;;;;4805236;29;20472;-82
2022/01/25 06:02:52;;;;;;;101.55;51.38;;;3.20;99.90;;;;;;4805347;29;20035;-82
2022/01/25 06:05:18;;;;;;;102.20;52.55;;;4.00;99.90;;;;;;4806179;29;20047;-82
2022/01/25 06:07:44;;;;;;;98.93;52.92;;;3.40;99.90;;;;;;4822929;29;20133;-82
2022/01/25 06:10:10;;;;;;;95.20;49.97;;;5.20;99.90;;;;;;4805605;29;20104;-82
2022/01/25 06:12:35;;;;;;;91.68;50.55;;;4.80;99.90;;;;;;4811090;29;20510;-82
2022/01/25 06:15:02;;;;;;;99.05;52.33;;;4.00;99.90;;;;;;4804264;29;20097;-82
2022/01/25 06:17:27;;;;;;;98.50;52.05;;;6.30;99.90;;;;;;4805314;29;20047;-82
2022/01/25 06:19:53;;;;;;;96.05;51.75;;;4.80;99.90;;;;;;4804890;29;20145;-83
2022/01/25 06:22:19;;;;;;;98.18;50.70;;;3.80;99.90;;;;;;4810296;29;20070;-82
2022/01/25 06:24:44;;;;;;;91.00;49.17;;;5.40;99.90;;;;;;4805238;29;20050;-82
2022/01/25 06:27:10;;;;;;;92.47;48.65;;;4.80;99.90;;;;;;4804579;29;20408;-83
2022/01/25 06:29:36;;;;;;;96.43;51.83;;;4.90;99.90;;;;;;4775095;29;20066;-83
2022/01/25 06:32:02;;;;;;;97.80;51.60;;;3.50;99.90;;;;;;4804869;29;20244;-82
2022/01/25 06:34:28;;;;;;;101.03;52.05;;;;;;;;;;4820714;29;20054;-82
2022/01/25 06:36:54;;;;;;;95.22;51.20;;;3.90;99.90;;;;;;4821345;29;20133;-82
2022/01/25 06:39:20;;;;;;;95.57;48.67;;;4.00;99.90;;;;;;4805501;29;20099;-82
2022/01/25 06:41:46;;;;;;;95.15;49.35;;;4.00;99.90;;;;;;4805274;29;20497;-83
2022/01/25 06:44:11;;;;;;;91.68;49.83;;;3.90;99.90;;;;;;4789268;29;20084;-84
2022/01/25 06:46:37;;;;;;;92.60;49.42;;;6.30;99.90;;;;;;4813868;29;20050;-82
2022/01/25 06:49:03;;;;;;;103.88;53.38;;;3.90;99.90;;;;;;4823547;29;20361;-82
2022/01/25 06:51:29;;;;;;;94.00;49.78;;;6.70;99.90;;;;;;4822771;29;20115;-82
2022/01/25 06:53:55;;;;;;;96.57;50.20;;;5.10;99.90;;;;;;4814955;29;20090;-82
2022/01/25 06:56:21;;;;;;;99.05;50.25;;;5.40;99.90;;;;;;4800005;29;20138;-82
2022/01/25 06:58:46;;;;;;;91.13;51.28;;;5.30;99.90;;;;;;4812574;29;20397;-82
2022/01/25 07:01:12;;;;;;;97.63;51.00;;;3.90;99.90;;;;;;4792560;29;20047;-83
2022/01/25 07:03:38;;;;;;;95.28;50.03;;;3.90;99.90;;;;;;4810386;29;20103;-83
2022/01/25 07:06:04;;;;;;;98.35;52.63;;;3.00;99.90;;;;;;4762813;29;20125;-82
2022/01/25 07:08:29;;;;;;;101.43;50.28;;;4.60;99.90;;;;;;4822909;29;20043;-82
2022/01/25 07:10:55;;;;;;;96.40;50.40;;;2.50;99.90;;;;;;4796553;29;20051;-82
2022/01/25 07:13:21;;;;;;;94.63;50.08;;;4.00;99.90;;;;;;4789268;29;20111;-82
2022/01/25 07:15:47;;;;;;;98.88;52.10;;;;;;;;;;4788031;29;20528;-87
2022/01/25 07:18:15;;;;;;;96.72;52.00;;;4.00;99.90;;;;;;4805295;29;20054;-82
2022/01/25 07:20:41;;;;;;;111.47;54.83;;;6.10;99.90;;;;;;4804922;29;20464;-82
2022/01/25 07:23:06;;;;;;;102.13;53.00;;;4.70;99.90;;;;;;4788130;29;20063;-81
2022/01/25 07:25:32;;;;;;;95.10;50.10;;;4.00;99.90;;;;;;4804347;29;20057;-82
2022/01/25 07:27:58;;;;;;;97.03;52.45;;;;;;;;;;4788162;29;20456;-82
2022/01/25 07:30:24;;;;;;;107.05;51.15;;;4.00;99.90;;;;;;4804622;29;20115;-84
2022/01/25 07:32:50;;;;;;;101.43;52.13;;;4.10;99.90;;;;;;4804889;29;20050;-83
2022/01/25 07:35:16;;;;;;;98.90;50.33;;;4.00;99.90;;;;;;4805747;29;20047;-82
2022/01/25 07:37:42;;;;;;;93.70;49.45;;;5.50;99.90;;;;;;4791759;29;20350;-84
2022/01/25 07:40:09;;;;;;;95.93;48.92;;;5.10;99.90;;;;;;4789871;29;20267;-82
2022/01/25 07:42:37;;;;;;;95.18;49.30;;;3.00;99.90;;;;;;4785256;29;20066;-82
2022/01/25 07:45:07;;;;;;;98.85;51.05;;;5.60;99.90;;;;;;4803192;29;20062;-82
2022/01/25 07:47:35;;;;;;;103.43;51.67;;;4.10;99.90;;;;;;4814525;29;20493;-82
2022/01/25 07:50:01;;;;;;;101.60;51.38;;;2.30;99.90;;;;;;4822462;29;20054;-82
2022/01/25 07:52:26;;;;;;;99.70;50.15;;;6.30;99.90;;;;;;4806253;29;20069;-82
2022/01/25 07:54:52;;;;;;;102.90;51.08;;;4.40;99.90;;;;;;4794963;29;20054;-83
2022/01/25 07:57:18;;;;;;;104.78;50.85;;;5.00;99.90;;;;;;4820846;29;20061;-83
2022/01/25 07:59:43;;;;;;;97.13;49.75;;;4.70;99.90;;;;;;4788723;29;20127;-84
2022/01/25 08:02:16;;;;;;;98.13;51.28;;;4.10;99.90;;;;;;4787351;29;20050;-83
2022/01/25 08:04:42;;;;;;;97.43;52.53;;;;;;;;;;4803996;29;20097;-82
2022/01/25 08:07:08;;;;;;;98.50;50.65;;;3.80;99.90;;;;;;4787644;29;20138;-83
2022/01/25 08:09:33;;;;;;;97.72;50.67;;;5.20;99.90;;;;;;4803788;29;20456;-82
2022/01/25 08:11:59;;;;;;;109.35;51.63;;;3.70;99.90;;;;;;4787437;29;20342;-83
2022/01/25 08:14:25;;;;;;;103.65;51.80;;;5.00;99.90;;;;;;4803857;29;20134;-83
2022/01/25 08:16:52;;;;;;;98.28;50.17;;;4.20;99.90;;;;;;4818038;29;20082;-83
2022/01/25 08:19:19;;;;;;;110.90;53.92;;;3.90;99.90;;;;;;4820602;29;20508;-82
2022/01/25 08:21:45;;;;;;;99.35;51.53;;;;;;;;;;4820257;29;20057;-84
2022/01/25 08:24:13;;;;;;;104.97;50.47;;;4.70;99.90;;;;;;4803221;29;20113;-83
2022/01/25 08:26:40;;;;;;;;;;;3.80;99.90;;;;;;4804825;29;20142;-82
2022/01/25 08:29:06;;;;;;;91.47;50.80;;;5.20;99.90;;;;;;4804521;29;19947;-84
2022/01/25 08:31:33;;;;;;;100.40;50.85;;;4.10;99.90;;;;;;4803396;29;20464;-82
2022/01/25 08:33:59;;;;;;;106.00;52.53;;;4.50;99.90;;;;;;4802932;29;20465;-83
2022/01/25 08:36:25;;;;;;;97.85;49.83;;;3.80;99.90;;;;;;4807575;29;20042;-83
2022/01/25 08:38:51;;;;;;;98.47;50.35;;;5.40;99.90;;;;;;4803674;29;20066;-83
2022/01/25 08:41:17;;;;;;;98.15;50.58;;;4.20;99.90;;;;;;4807245;29;20128;-83
2022/01/25 08:43:43;;;;;;;109.85;51.47;;;6.40;99.90;;;;;;4812795;29;20058;-82
2022/01/25 08:46:10;;;;;;;104.03;52.10;;;4.60;99.90;;;;;;4810205;29;20095;-82
2022/01/25 08:48:35;;;;;;;97.28;49.42;;;6.70;99.90;;;;;;4803160;29;20097;-82
2022/01/25 08:51:01;;;;;;;98.75;49.97;;;5.30;99.90;;;;;;4786796;29;20433;-83
2022/01/25 08:53:27;;;;;;;103.80;51.88;;;6.20;99.90;;;;;;4787170;29;20505;-84
2022/01/25 08:55:53;;;;;;;99.57;51.70;;;4.20;99.90;;;;;;4803652;29;20054;-83
2022/01/25 08:58:19;;;;;;;98.82;51.38;;;4.20;99.90;;;;;;4789068;29;20192;-83
2022/01/25 09:00:44;;;;;;;101.80;53.22;;;4.40;99.90;;;;;;4802958;29;20513;-83
2022/01/25 09:03:11;;;;;;;103.38;52.47;;;4.50;99.90;;;;;;4801256;29;20051;-82
2022/01/25 09:05:37;;;;;;;101.70;51.40;;;4.60;99.90;;;;;;4821656;29;20054;-83
2022/01/25 09:08:05;;;;;;;102.40;50.40;;;6.60;99.90;;;;;;4803124;29;20054;-83
2022/01/25 09:10:31;;;;;;;97.07;51.03;;;6.50;99.90;;;;;;4806999;29;20054;-82
2022/01/25 09:12:57;;;;;;;97.25;51.03;;;4.20;99.90;;;;;;4806518;29;20093;-82
2022/01/25 09:15:23;;;;;;;104.35;50.30;;;4.70;99.90;;;;;;4790631;29;20413;-82
2022/01/25 09:17:50;;;;;;;101.18;50.63;;;4.20;99.90;;;;;;4783799;29;20065;-82
2022/01/25 09:20:16;;;;;;;105.53;52.55;;;6.90;99.90;;;;;;4824483;29;20054;-82
2022/01/25 09:22:41;;;;;;;100.80;51.05;;;4.30;99.90;;;;;;4809505;29;20115;-83
2022/01/25 09:25:09;;;;;;;101.00;51.20;;;1.60;99.90;;;;;;4790127;29;20391;-83
2022/01/25 09:27:34;;;;;;;107.10;51.95;;;4.30;99.90;;;;;;4797838;29;20145;-82
2022/01/25 09:30:00;;;;;;;103.07;50.83;;;5.30;99.90;;;;;;4808159;29;20489;-87
2022/01/25 09:32:26;;;;;;;109.65;52.85;;;4.70;99.90;;;;;;4782720;29;20050;-82
2022/01/25 09:34:52;;;;;;;102.45;52.50;;;4.30;99.90;;;;;;4805305;29;20046;-82
2022/01/25 09:37:17;;;;;;;102.18;52.03;;;2.80;99.90;;;;;;4778917;29;20054;-83
2022/01/25 09:39:43;;;;;;;105.20;51.58;;;4.60;99.90;;;;;;4823963;29;20114;-83
2022/01/25 09:42:10;;;;;;;105.05;51.58;;;;;;;;;;4783466;30;20100;-83
2022/01/25 09:44:38;;;;;;;103.25;50.65;;;4.30;99.90;;;;;;4796481;29;20164;-83
2022/01/25 09:47:06;;;;;;;107.63;52.72;;;4.20;99.90;;;;;;4802870;29;20063;-85
2022/01/25 09:49:33;;;;;;;108.75;51.65;;;4.30;99.90;;;;;;4806732;29;20059;-83
2022/01/25 09:52:05;;;;;;;107.43;51.58;;;5.50;99.90;;;;;;4790324;29;20106;-83
2022/01/25 09:54:32;;;;;;;112.30;52.38;;;4.30;99.90;;;;;;4775165;29;20066;-82
2022/01/25 09:57:00;;;;;;;108.35;52.67;;;6.30;99.90;;;;;;4823658;29;20042;-82
2022/01/25 09:59:26;;;;;;;118.00;55.13;;;4.20;99.90;;;;;;4818742;29;20138;-83
2022/01/25 10:01:53;;;;;;;106.45;52.42;;;4.70;99.90;;;;;;4807766;29;20050;-82
2022/01/25 10:04:29;;;;;;;111.35;52.83;;;4.00;99.90;;;;;;4805517;29;20057;-82
2022/01/25 10:06:55;;;;;;;105.68;51.85;;;5.00;99.90;;;;;;4807613;29;20047;-82
2022/01/25 10:09:21;;;;;;;102.93;51.10;;;5.00;99.90;;;;;;4805109;29;20103;-83
2022/01/25 10:11:49;;;;;;;114.65;52.35;;;;;;;;;;4774727;29;20062;-83
2022/01/25 10:14:15;;;;;;;104.43;49.28;;;4.40;99.90;;;;;;4805460;29;20050;-83
2022/01/25 10:16:43;;;;;;;102.68;51.80;;;3.30;99.90;;;;;;4806868;29;20532;-82
2022/01/25 10:19:12;;;;;;;103.18;52.72;;;4.40;99.90;;;;;;4807254;29;20181;-82
2022/01/25 10:21:40;;;;;;;117.93;54.95;;;6.60;99.90;;;;;;4797558;29;20046;-82
2022/01/25 10:24:08;;;;;;;99.78;49.97;;;4.80;99.90;;;;;;4788824;29;20050;-83
2022/01/25 10:26:39;;;;;;;110.22;53.08;;;4.40;99.90;;;;;;4790070;29;20103;-82
2022/01/25 10:29:09;;;;;;;105.13;53.03;;;4.30;99.90;;;;;;4795639;29;20065;-83
2022/01/25 10:31:42;;;;;;;115.60;54.65;;;4.40;99.90;;;;;;4821877;29;20050;-82
2022/01/25 10:34:10;;;;;;;103.03;51.60;;;4.30;99.90;;;;;;4807449;29;20082;-83
2022/01/25 10:36:56;;;;;;;110.78;53.20;;;5.60;99.90;;;;;;4818982;29;20047;-83
2022/01/25 10:39:35;;;;;;;110.82;52.05;;;3.20;99.90;;;;;;4811214;29;20055;-82
2022/01/25 10:42:05;;;;;;;;;;;4.30;99.90;;;;;;4806692;29;20054;-83
2022/01/25 10:44:52;;;;;;;110.95;52.40;;;4.30;99.90;;;;;;4789177;29;20457;-82
2022/01/25 10:47:36;;;;;;;118.13;54.22;;;4.30;99.90;;;;;;4802423;29;20046;-83
2022/01/25 10:50:11;;;;;;;113.97;53.75;;;6.00;99.90;;;;;;4822681;29;20055;-82
2022/01/25 10:52:37;;;;;;;111.00;52.92;;;4.30;99.90;;;;;;4789523;29;20086;-83
2022/01/25 10:55:06;;;;;;;111.22;53.05;;;4.20;99.90;;;;;;4794754;29;20445;-82
2022/01/25 10:57:32;;;;;;;119.28;53.20;;;4.40;99.90;;;;;;4805151;29;20130;-82
2022/01/25 11:00:06;;;;;;;111.20;53.70;;;6.20;99.90;;;;;;4804881;29;20133;-82
2022/01/25 11:02:31;;;;;;;109.75;52.25;;;4.40;99.90;;;;;;4790134;29;20094;-82
2022/01/25 11:05:06;;;;;;;115.10;54.55;;;4.50;99.90;;;;;;4788523;29;20097;-82
2022/01/25 11:07:37;;;;;;;108.18;52.30;;;4.40;99.90;;;;;;4785555;30;20406;-83
2022/01/25 11:10:03;;;;;;;110.38;52.45;;;5.60;99.90;;;;;;4787512;30;20134;-82
2022/01/25 11:12:36;;;;;;;108.25;53.83;;;3.70;99.90;;;;;;4787656;29;20139;-83
2022/01/25 11:15:03;;;;;;;111.25;53.33;;;5.90;99.90;;;;;;4775999;29;20072;-82
2022/01/25 11:17:30;;;;;;;105.97;51.53;;;5.00;99.90;;;;;;4809021;29;20137;-82
2022/01/25 11:19:57;;;;;;;117.15;54.85;;;6.50;99.90;;;;;;4802732;29;20138;-82
2022/01/25 11:22:24;;;;;;;107.70;53.17;;;4.70;99.90;;;;;;4787194;29;20055;-83
2022/01/25 11:25:05;;;;;;;114.43;52.72;;;6.70;99.90;;;;;;4804224;29;20357;-82
2022/01/25 11:27:32;;;;;;;110.68;52.50;;;2.50;99.90;;;;;;4787834;29;20124;-83
2022/01/25 11:30:11;;;;;;;109.28;52.08;;;4.60;99.90;;;;;;4788550;29;20522;-82
2022/01/25 11:32:41;;;;;;;113.22;54.97;;;4.40;99.90;;;;;;4810961;29;20486;-82
2022/01/25 11:35:10;;;;;;;104.00;53.47;;;4.40;99.90;;;;;;4805293;29;20134;-82
2022/01/25 11:37:46;;;;;;;106.88;51.65;;;3.60;99.90;;;;;;4819074;29;20054;-82
2022/01/25 11:40:31;;;;;;;110.05;52.28;;;4.60;99.90;;;;;;4816001;29;20055;-86
2022/01/25 11:43:02;;;;;;;115.93;52.30;;;6.10;99.90;;;;;;4806089;29;20057;-82
2022/01/25 11:45:32;;;;;;;110.47;52.47;;;6.40;99.90;;;;;;4806401;29;20513;-82
2022/01/25 11:47:58;;;;;;;116.38;52.40;;;6.90;99.90;;;;;;4804486;29;20055;-82
2022/01/25 11:50:35;;;;;;;108.65;53.17;;;4.20;99.90;;;;;;4803289;29;20051;-82
2022/01/25 11:53:07;;;;;;;109.93;51.28;;;4.50;99.90;;;;;;4803071;29;20149;-82
2022/01/25 11:55:40;;;;;;;111.15;54.10;;;4.70;99.90;;;;;;4772308;29;20066;-82
2022/01/25 11:58:32;;;;;;;122.00;53.85;;;4.40;99.90;;;;;;4806797;29;20054;-82
2022/01/25 12:01:01;;;;;;;116.80;54.85;;;4.40;99.90;;;;;;4803635;29;20104;-82
2022/01/25 12:03:48;;;;;;;125.13;54.17;;;6.00;99.90;;;;;;4787105;29;20458;-82
2022/01/25 12:06:34;;;;;;;133.57;55.72;;;4.90;99.90;;;;;;4803667;29;20093;-86
2022/01/25 12:09:15;;;;;;;107.93;52.00;;;4.90;99.90;;;;;;4815667;29;20060;-82
2022/01/25 12:11:58;;;;;;;112.38;52.83;;;4.30;99.90;;;;;;4815939;29;20505;-83
2022/01/25 12:14:26;;;;;;;115.32;54.53;;;4.80;99.90;;;;;;4786727;29;20051;-82
2022/01/25 12:17:10;;;;;;;111.50;52.33;;;6.50;99.90;;;;;;4801687;29;20054;-82
2022/01/25 12:19:51;;;;;;;100.82;50.45;;;4.20;99.90;;;;;;4802375;29;20640;-82
2022/01/25 12:25:08;;;;;;;107.70;52.55;;;4.40;99.90;;;;;;4787427;29;20082;-83
2022/01/25 12:27:54;;;;;;;112.55;53.28;;;4.40;99.90;;;;;;4786673;29;20090;-83
2022/01/25 12:30:27;;;;;;;117.95;54.47;;;4.20;99.90;;;;;;4786656;29;20054;-82
2022/01/25 12:33:08;;;;;;;110.82;50.75;;;5.50;99.90;;;;;;4803404;29;20085;-82
2022/01/25 12:35:42;;;;;;;108.05;51.28;;;5.00;99.90;;;;;;4787202;29;20074;-83
2022/01/25 12:38:08;;;;;;;109.00;50.70;;;;;;;;;;4789163;29;20062;-82
2022/01/25 12:40:50;;;;;;;117.18;51.88;;;3.70;99.90;;;;;;4773196;29;20088;-82
2022/01/25 12:43:22;;;;;;;113.57;53.28;;;6.70;99.90;;;;;;4788785;29;20524;-86
2022/01/25 12:45:55;;;;;;;123.38;52.55;;;4.40;99.90;;;;;;4803060;29;20063;-82
2022/01/25 12:48:25;;;;;;;119.47;51.78;;;4.40;99.90;;;;;;4802806;29;20051;-82
2022/01/25 12:50:53;;;;;;;110.88;51.40;;;4.70;99.90;;;;;;4791476;29;20540;-82
2022/01/25 12:53:21;;;;;;;;;;;4.40;99.90;;;;;;4797126;29;20126;-83
2022/01/25 12:55:51;;;;;;;105.28;50.22;;;5.00;99.90;;;;;;4800121;29;19929;-82
2022/01/25 12:58:22;;;;;;;119.75;54.00;;;5.80;99.90;;;;;;4803473;29;20152;-86
2022/01/25 13:00:53;;;;;;;114.70;52.90;;;4.40;99.90;;;;;;4798874;29;20157;-82
2022/01/25 13:03:29;;;;;;;110.68;53.13;;;4.90;99.90;;;;;;4806213;29;20082;-87
2022/01/25 13:06:27;;;;;;;109.80;50.55;;;5.80;99.90;;;;;;4786713;29;20043;-82
2022/01/25 13:09:10;;;;;;;121.93;53.58;;;4.50;99.90;;;;;;4784072;29;20102;-82
2022/01/25 13:17:11;;;;;;;114.40;51.22;;;4.50;99.90;;;;;;4785212;30;20059;-82
2022/01/25 13:19:44;;;;;;;113.05;53.55;;;4.80;99.90;;;;;;4789690;29;20065;-82
2022/01/25 13:22:20;;;;;;;114.60;52.53;;;4.80;99.90;;;;;;4806736;29;20046;-84
2022/01/25 13:27:28;;;;;;;123.25;54.90;;;4.40;99.90;;;;;;4802318;29;20055;-82
2022/01/25 13:32:51;;;;;;;105.10;49.80;;;4.40;99.90;;;;;;4811323;29;20405;-82
2022/01/25 13:35:39;;;;;;;116.63;53.63;;;6.70;99.90;;;;;;4803773;29;20119;-82
2022/01/25 13:38:16;;;;;;;109.57;51.55;;;6.80;99.90;;;;;;4820254;29;20111;-83
2022/01/25 13:46:06;;;;;;;111.18;51.78;;;5.50;99.90;;;;;;4803218;29;20063;-83
2022/01/25 13:48:33;;;;;;;117.22;53.00;;;5.30;99.90;;;;;;4802824;29;20059;-82
2022/01/25 13:51:06;;;;;;;116.67;53.03;;;4.30;99.90;;;;;;4803905;29;20047;-83
2022/01/25 13:53:33;;;;;;;111.90;51.92;;;;;;;;;;4793193;29;20301;-84
2022/01/25 13:56:00;;;;;;;121.97;53.33;;;4.40;99.90;;;;;;4800804;29;20116;-82
2022/01/25 13:58:32;;;;;;;116.68;51.67;;;6.20;99.90;;;;;;4807358;29;20054;-82
2022/01/25 14:01:00;;;;;;;118.28;51.17;;;4.50;99.90;;;;;;4789599;29;20158;-83
2022/01/25 14:03:29;;;;;;;116.03;53.90;;;4.30;99.90;;;;;;4808748;29;20133;-83
2022/01/25 14:05:55;;;;;;;111.47;52.47;;;4.50;99.90;;;;;;4811596;29;20094;-82
2022/01/25 14:08:32;;;;;;;125.13;54.30;;;4.50;99.90;;;;;;4788775;29;20485;-85
2022/01/25 14:11:01;;;;;;;115.00;53.85;;;6.20;99.90;;;;;;4774703;29;20057;-82
2022/01/25 14:24:52;;;;;;;116.57;53.20;;;4.50;99.90;;;;;;4799002;29;20161;-83
2022/01/25 14:27:29;;;;;;;108.32;52.05;;;5.10;99.90;;;;;;4805908;29;20370;-82
2022/01/25 14:29:55;;;;;;;119.60;53.05;;;4.40;99.90;;;;;;4805463;29;20050;-83
2022/01/25 14:32:33;;;;;;;106.93;51.97;;;7.10;99.90;;;;;;4802102;29;20062;-83
2022/01/25 14:35:10;;;;;;;115.27;50.50;;;6.10;99.90;;;;;;4813339;29;20069;-82
2022/01/25 14:37:48;;;;;;;108.53;50.60;;;5.80;99.90;;;;;;4822684;29;20302;-83
2022/01/25 14:40:16;;;;;;;112.28;52.30;;;4.40;99.90;;;;;;4807265;29;20065;-83
2022/01/25 14:42:44;;;;;;;112.55;52.35;;;5.80;99.90;;;;;;4817815;29;20477;-83
2022/01/25 14:45:14;;;;;;;112.07;49.78;;;2.70;99.90;;;;;;4805371;29;20051;-83
2022/01/25 14:47:43;;;;;;;126.60;51.47;;;2.20;99.90;;;;;;4805243;29;20055;-83
2022/01/25 14:50:35;;;;;;;107.80;51.83;;;5.00;99.90;;;;;;4805602;29;20133;-83
2022/01/25 14:53:12;;;;;;;118.10;53.08;;;4.30;99.90;;;;;;4770313;30;20065;-82
2022/01/25 14:55:40;;;;;;;112.50;52.78;;;3.10;99.90;;;;;;4797543;29;20050;-83
2022/01/25 15:00:56;;;;;;;118.00;52.35;;;4.00;99.90;;;;;;4771445;29;20530;-83
2022/01/25 15:03:24;;;;;;;119.78;50.22;;;5.90;99.90;;;;;;4789374;29;20066;-83
2022/01/25 15:05:51;;;;;;;;;;;6.60;99.90;;;;;;4758522;30;20063;-83
2022/01/25 15:08:20;;;;;;;126.88;55.92;;;5.00;99.90;;;;;;4787303;29;19925;-82
2022/01/25 15:10:47;;;;;;;150.70;63.75;;;5.00;99.90;;;;;;4805128;29;20501;-83